sensor_id;sensor_type;location;lat;lon;timestamp;temperature;humidity
3256;DHT22;1640;48.504;9.224;2023-04-15T00:00:09;4.10;15.00
3256;DHT22;1640;48.504;9.224;2023-04-15T00:02:37;4.10;11.30
3256;DHT22;1640;48.504;9.224;2023-04-15T00:05:05;4.00;10.20
3256;DHT22;1640;48.504;9.224;2023-04-15T00:07:33;3.90;7.80
3256;DHT22;1640;48.504;9.224;2023-04-15T00:10:01;3.90;7.30
3256;DHT22;1640;48.504;9.224;2023-04-15T00:12:31;3.80;2.80
3256;DHT22;1640;48.504;9.224;2023-04-15T00:14:58;3.70;99.90
3256;DHT22;1640;48.504;9.224;2023-04-15T00:17:26;3.70;99.90
3256;DHT22;1640;48.504;9.224;2023-04-15T00:19:54;3.70;99.90
3256;DHT22;1640;48.504;9.224;2023-04-15T00:22:23;3.70;99.90
3256;DHT22;1640;48.504;9.224;2023-04-15T00:24:51;3.60;99.90
3256;DHT22;1640;48.504;9.224;2023-04-15T00:27:19;3.60;99.90
3256;DHT22;1640;48.504;9.224;2023-04-15T00:29:48;3.50;99.90
3256;DHT22;1640;48.504;9.224;2023-04-15T00:32:16;3.40;99.90
3256;DHT22;1640;48.504;9.224;2023-04-15T00:34:45;3.40;99.90
3256;DHT22;1640;48.504;9.224;2023-04-15T00:37:13;3.30;99.90
3256;DHT22;1640;48.504;9.224;2023-04-15T00:39:40;3.20;99.90
3256;DHT22;1640;48.504;9.224;2023-04-15T00:42:09;3.20;99.90
3256;DHT22;1640;48.504;9.224;2023-04-15T00:44:37;3.20;99.90
3256;DHT22;1640;48.504;9.224;2023-04-15T00:47:06;3.10;99.90
3256;DHT22;1640;48.504;9.224;2023-04-15T00:49:34;3.10;99.90
3256;DHT22;1640;48.504;9.224;2023-04-15T00:52:02;3.10;99.90
3256;DHT22;1640;48.504;9.224;2023-04-15T00:54:30;3.10;99.90
3256;DHT22;1640;48.504;9.224;2023-04-15T00:56:58;3.10;99.90
3256;DHT22;1640;48.504;9.224;2023-04-15T00:59:26;3.10;99.90
3256;DHT22;1640;48.504;9.224;2023-04-15T01:01:54;3.10;99.90
3256;DHT22;1640;48.504;9.224;2023-04-15T01:04:24;3.10;99.90
3256;DHT22;1640;48.504;9.224;2023-04-15T01:06:52;3.00;99.90
3256;DHT22;1640;48.504;9.224;2023-04-15T01:09:20;3.00;99.90
3256;DHT22;1640;48.504;9.224;2023-04-15T01:11:48;3.00;99.90
3256;DHT22;1640;48.504;9.224;2023-04-15T01:14:16;3.00;99.90
3256;DHT22;1640;48.504;9.224;2023-04-15T01:16:45;3.00;99.90
3256;DHT22;1640;48.504;9.224;2023-04-15T01:19:13;3.00;99.90
3256;DHT22;1640;48.504;9.224;2023-04-15T01:21:44;3.00;99.90
3256;DHT22;1640;48.504;9.224;2023-04-15T01:24:12;2.90;99.90
3256;DHT22;1640;48.504;9.224;2023-04-15T01:26:44;2.90;99.90
3256;DHT22;1640;48.504;9.224;2023-04-15T01:29:12;2.90;99.90
3256;DHT22;1640;48.504;9.224;2023-04-15T01:31:43;2.90;99.90
3256;DHT22;1640;48.504;9.224;2023-04-15T01:34:15;2.90;99.90
3256;DHT22;1640;48.504;9.224;2023-04-15T01:36:43;2.90;99.90
3256;DHT22;1640;48.504;9.224;2023-04-15T01:39:11;2.90;99.90
3256;DHT22;1640;48.504;9.224;2023-04-15T01:41:39;2.90;99.90
3256;DHT22;1640;48.504;9.224;2023-04-15T01:44:09;2.80;99.90
3256;DHT22;1640;48.504;9.224;2023-04-15T01:46:36;2.90;99.90
3256;DHT22;1640;48.504;9.224;2023-04-15T01:49:04;2.90;99.90
3256;DHT22;1640;48.504;9.224;2023-04-15T01:51:32;2.80;99.90
3256;DHT22;1640;48.504;9.224;2023-04-15T01:54:00;2.80;99.90
3256;DHT22;1640;48.504;9.224;2023-04-15T01:56:28;2.80;99.90
3256;DHT22;1640;48.504;9.224;2023-04-15T01:58:55;2.80;99.90
3256;DHT22;1640;48.504;9.224;2023-04-15T02:01:25;2.80;99.90
3256;DHT22;1640;48.504;9.224;2023-04-15T02:03:53;2.80;99.90
3256;DHT22;1640;48.504;9.224;2023-04-15T02:06:21;2.70;99.90
3256;DHT22;1640;48.504;9.224;2023-04-15T02:08:49;2.70;99.90
3256;DHT22;1640;48.504;9.224;2023-04-15T02:11:17;2.70;99.90
3256;DHT22;1640;48.504;9.224;2023-04-15T02:13:45;2.70;99.90
3256;DHT22;1640;48.504;9.224;2023-04-15T02:16:16;2.70;99.90
3256;DHT22;1640;48.504;9.224;2023-04-15T02:18:46;2.60;99.90
3256;DHT22;1640;48.504;9.224;2023-04-15T02:21:14;2.60;99.90
3256;DHT22;1640;48.504;9.224;2023-04-15T02:23:41;2.60;99.90
3256;DHT22;1640;48.504;9.224;2023-04-15T02:26:12;2.60;99.90
3256;DHT22;1640;48.504;9.224;2023-04-15T02:28:39;2.60;99.90
3256;DHT22;1640;48.504;9.224;2023-04-15T02:31:07;2.60;99.90
3256;DHT22;1640;48.504;9.224;2023-04-15T02:33:35;2.60;99.90
3256;DHT22;1640;48.504;9.224;2023-04-15T02:36:05;2.50;99.90
3256;DHT22;1640;48.504;9.224;2023-04-15T02:38:34;2.50;99.90
3256;DHT22;1640;48.504;9.224;2023-04-15T02:41:03;2.50;99.90
3256;DHT22;1640;48.504;9.224;2023-04-15T02:43:31;2.40;99.90
3256;DHT22;1640;48.504;9.224;2023-04-15T02:45:58;2.40;99.90
3256;DHT22;1640;48.504;9.224;2023-04-15T02:48:26;2.40;99.90
3256;DHT22;1640;48.504;9.224;2023-04-15T02:51:14;2.40;99.90
3256;DHT22;1640;48.504;9.224;2023-04-15T02:53:42;2.30;99.90
3256;DHT22;1640;48.504;9.224;2023-04-15T02:56:10;2.30;99.90
3256;DHT22;1640;48.504;9.224;2023-04-15T02:58:40;2.30;99.90
3256;DHT22;1640;48.504;9.224;2023-04-15T03:01:08;2.20;99.90
3256;DHT22;1640;48.504;9.224;2023-04-15T03:03:35;2.20;99.90
3256;DHT22;1640;48.504;9.224;2023-04-15T03:06:03;2.10;99.90
3256;DHT22;1640;48.504;9.224;2023-04-15T03:08:32;2.20;99.90
3256;DHT22;1640;48.504;9.224;2023-04-15T03:11:00;2.10;99.90
3256;DHT22;1640;48.504;9.224;2023-04-15T03:13:28;2.10;99.90
3256;DHT22;1640;48.504;9.224;2023-04-15T03:15:56;2.00;99.90
3256;DHT22;1640;48.504;9.224;2023-04-15T03:18:24;2.00;99.90
3256;DHT22;1640;48.504;9.224;2023-04-15T03:20:52;1.90;99.90
3256;DHT22;1640;48.504;9.224;2023-04-15T03:23:19;1.90;99.90
3256;DHT22;1640;48.504;9.224;2023-04-15T03:25:49;1.80;99.90
3256;DHT22;1640;48.504;9.224;2023-04-15T03:28:17;1.80;99.90
3256;DHT22;1640;48.504;9.224;2023-04-15T03:30:44;1.80;99.90
3256;DHT22;1640;48.504;9.224;2023-04-15T03:33:12;1.90;99.90
3256;DHT22;1640;48.504;9.224;2023-04-15T03:35:40;1.90;99.90
3256;DHT22;1640;48.504;9.224;2023-04-15T03:38:08;1.90;99.90
3256;DHT22;1640;48.504;9.224;2023-04-15T03:40:36;1.90;99.90
3256;DHT22;1640;48.504;9.224;2023-04-15T03:43:05;1.90;99.90
3256;DHT22;1640;48.504;9.224;2023-04-15T03:45:33;1.80;99.90
3256;DHT22;1640;48.504;9.224;2023-04-15T03:48:01;1.80;99.90
3256;DHT22;1640;48.504;9.224;2023-04-15T03:50:29;1.90;99.90
3256;DHT22;1640;48.504;9.224;2023-04-15T03:52:56;1.80;99.90
3256;DHT22;1640;48.504;9.224;2023-04-15T03:55:24;1.80;99.90
3256;DHT22;1640;48.504;9.224;2023-04-15T03:57:52;1.80;99.90
3256;DHT22;1640;48.504;9.224;2023-04-15T04:00:21;1.70;99.90
3256;DHT22;1640;48.504;9.224;2023-04-15T04:02:49;1.70;99.90
3256;DHT22;1640;48.504;9.224;2023-04-15T04:05:17;1.70;99.90
3256;DHT22;1640;48.504;9.224;2023-04-15T04:07:45;1.70;99.90
3256;DHT22;1640;48.504;9.224;2023-04-15T04:10:13;1.60;99.90
3256;DHT22;1640;48.504;9.224;2023-04-15T04:12:40;1.60;99.90
3256;DHT22;1640;48.504;9.224;2023-04-15T04:15:09;1.60;99.90
3256;DHT22;1640;48.504;9.224;2023-04-15T04:17:38;1.60;99.90
3256;DHT22;1640;48.504;9.224;2023-04-15T04:20:07;1.60;99.90
3256;DHT22;1640;48.504;9.224;2023-04-15T04:22:37;1.60;99.90
3256;DHT22;1640;48.504;9.224;2023-04-15T04:25:05;1.60;99.90
3256;DHT22;1640;48.504;9.224;2023-04-15T04:27:33;1.50;99.90
3256;DHT22;1640;48.504;9.224;2023-04-15T04:30:01;1.50;99.90
3256;DHT22;1640;48.504;9.224;2023-04-15T04:32:29;1.50;99.90
3256;DHT22;1640;48.504;9.224;2023-04-15T04:34:58;1.50;99.90
3256;DHT22;1640;48.504;9.224;2023-04-15T04:37:26;1.50;99.90
3256;DHT22;1640;48.504;9.224;2023-04-15T04:39:53;1.50;99.90
3256;DHT22;1640;48.504;9.224;2023-04-15T04:42:21;1.50;99.90
3256;DHT22;1640;48.504;9.224;2023-04-15T04:44:49;1.60;99.90
3256;DHT22;1640;48.504;9.224;2023-04-15T04:47:17;1.60;99.90
3256;DHT22;1640;48.504;9.224;2023-04-15T04:49:44;1.60;99.90
3256;DHT22;1640;48.504;9.224;2023-04-15T04:52:14;1.60;99.90
3256;DHT22;1640;48.504;9.224;2023-04-15T04:54:41;1.70;99.90
3256;DHT22;1640;48.504;9.224;2023-04-15T04:57:09;1.60;99.90
3256;DHT22;1640;48.504;9.224;2023-04-15T04:59:38;1.60;99.90
3256;DHT22;1640;48.504;9.224;2023-04-15T05:02:07;1.70;99.90
3256;DHT22;1640;48.504;9.224;2023-04-15T05:04:35;1.70;99.90
3256;DHT22;1640;48.504;9.224;2023-04-15T05:07:02;1.70;99.90
3256;DHT22;1640;48.504;9.224;2023-04-15T05:09:32;1.70;99.90
3256;DHT22;1640;48.504;9.224;2023-04-15T05:12:02;1.70;99.90
3256;DHT22;1640;48.504;9.224;2023-04-15T05:14:30;1.70;99.90
3256;DHT22;1640;48.504;9.224;2023-04-15T05:16:58;1.70;99.90
3256;DHT22;1640;48.504;9.224;2023-04-15T05:19:26;1.70;99.90
3256;DHT22;1640;48.504;9.224;2023-04-15T05:21:53;1.70;99.90
3256;DHT22;1640;48.504;9.224;2023-04-15T05:24:21;1.80;99.90
3256;DHT22;1640;48.504;9.224;2023-04-15T05:26:51;1.80;99.90
3256;DHT22;1640;48.504;9.224;2023-04-15T05:29:19;1.80;99.90
3256;DHT22;1640;48.504;9.224;2023-04-15T05:31:47;1.90;99.90
3256;DHT22;1640;48.504;9.224;2023-04-15T05:34:14;2.00;99.90
3256;DHT22;1640;48.504;9.224;2023-04-15T05:36:42;2.00;99.90
3256;DHT22;1640;48.504;9.224;2023-04-15T05:39:10;2.10;99.90
3256;DHT22;1640;48.504;9.224;2023-04-15T05:41:38;2.10;99.90
3256;DHT22;1640;48.504;9.224;2023-04-15T05:44:07;2.30;99.90
3256;DHT22;1640;48.504;9.224;2023-04-15T05:46:35;2.40;99.90
3256;DHT22;1640;48.504;9.224;2023-04-15T05:49:03;2.50;99.90
3256;DHT22;1640;48.504;9.224;2023-04-15T05:51:30;2.60;99.90
3256;DHT22;1640;48.504;9.224;2023-04-15T05:53:58;2.70;99.90
3256;DHT22;1640;48.504;9.224;2023-04-15T05:56:26;2.80;99.90
3256;DHT22;1640;48.504;9.224;2023-04-15T05:58:54;3.00;99.90
3256;DHT22;1640;48.504;9.224;2023-04-15T06:01:23;3.20;99.90
3256;DHT22;1640;48.504;9.224;2023-04-15T06:03:51;3.30;99.90
3256;DHT22;1640;48.504;9.224;2023-04-15T06:06:19;3.60;99.90
3256;DHT22;1640;48.504;9.224;2023-04-15T06:08:46;3.80;99.90
3256;DHT22;1640;48.504;9.224;2023-04-15T06:11:14;4.00;99.90
3256;DHT22;1640;48.504;9.224;2023-04-15T06:13:42;4.30;99.90
3256;DHT22;1640;48.504;9.224;2023-04-15T06:16:10;4.50;99.90
3256;DHT22;1640;48.504;9.224;2023-04-15T06:18:39;4.70;99.90
3256;DHT22;1640;48.504;9.224;2023-04-15T06:21:07;4.90;5.50
3256;DHT22;1640;48.504;9.224;2023-04-15T06:23:34;5.00;16.00
3256;DHT22;1640;48.504;9.224;2023-04-15T06:26:02;5.20;17.50
3256;DHT22;1640;48.504;9.224;2023-04-15T06:28:30;5.40;20.50
3256;DHT22;1640;48.504;9.224;2023-04-15T06:30:58;5.70;25.70
3256;DHT22;1640;48.504;9.224;2023-04-15T06:33:26;5.90;29.60
3256;DHT22;1640;48.504;9.224;2023-04-15T06:35:56;6.10;40.00
3256;DHT22;1640;48.504;9.224;2023-04-15T06:38:23;6.20;49.50
3256;DHT22;1640;48.504;9.224;2023-04-15T06:40:51;6.30;56.50
3256;DHT22;1640;48.504;9.224;2023-04-15T06:43:19;6.20;55.80
3256;DHT22;1640;48.504;9.224;2023-04-15T06:45:47;6.30;54.70
3256;DHT22;1640;48.504;9.224;2023-04-15T06:48:16;6.60;55.90
3256;DHT22;1640;48.504;9.224;2023-04-15T06:50:44;6.80;56.50
3256;DHT22;1640;48.504;9.224;2023-04-15T06:53:13;7.10;58.20
3256;DHT22;1640;48.504;9.224;2023-04-15T06:55:41;7.20;63.30
3256;DHT22;1640;48.504;9.224;2023-04-15T06:58:08;7.30;64.70
3256;DHT22;1640;48.504;9.224;2023-04-15T07:00:36;7.20;65.50
3256;DHT22;1640;48.504;9.224;2023-04-15T07:03:05;7.10;65.30
3256;DHT22;1640;48.504;9.224;2023-04-15T07:05:36;7.20;64.90
3256;DHT22;1640;48.504;9.224;2023-04-15T07:08:04;7.20;62.40
3256;DHT22;1640;48.504;9.224;2023-04-15T07:10:33;7.30;62.70
3256;DHT22;1640;48.504;9.224;2023-04-15T07:13:01;7.20;64.50
3256;DHT22;1640;48.504;9.224;2023-04-15T07:15:29;7.20;63.20
3256;DHT22;1640;48.504;9.224;2023-04-15T07:17:57;7.10;63.30
3256;DHT22;1640;48.504;9.224;2023-04-15T07:20:24;7.10;61.90
3256;DHT22;1640;48.504;9.224;2023-04-15T07:22:52;7.20;62.20
3256;DHT22;1640;48.504;9.224;2023-04-15T07:25:20;7.20;62.40
3256;DHT22;1640;48.504;9.224;2023-04-15T07:27:49;7.30;61.30
3256;DHT22;1640;48.504;9.224;2023-04-15T07:30:17;7.30;64.20
3256;DHT22;1640;48.504;9.224;2023-04-15T07:32:45;7.40;63.30
3256;DHT22;1640;48.504;9.224;2023-04-15T07:35:13;7.50;64.70
3256;DHT22;1640;48.504;9.224;2023-04-15T07:37:41;7.50;63.30
3256;DHT22;1640;48.504;9.224;2023-04-15T07:40:10;7.70;65.50
3256;DHT22;1640;48.504;9.224;2023-04-15T07:42:39;7.70;65.70
3256;DHT22;1640;48.504;9.224;2023-04-15T07:45:12;7.90;65.70
3256;DHT22;1640;48.504;9.224;2023-04-15T07:47:40;8.10;69.30
3256;DHT22;1640;48.504;9.224;2023-04-15T07:50:09;8.20;68.20
3256;DHT22;1640;48.504;9.224;2023-04-15T07:52:37;8.40;69.50
3256;DHT22;1640;48.504;9.224;2023-04-15T07:55:06;8.50;70.30
3256;DHT22;1640;48.504;9.224;2023-04-15T07:57:34;8.70;71.60
3256;DHT22;1640;48.504;9.224;2023-04-15T08:00:03;8.90;72.30
3256;DHT22;1640;48.504;9.224;2023-04-15T08:02:36;9.20;72.50
3256;DHT22;1640;48.504;9.224;2023-04-15T08:05:04;9.30;73.10
3256;DHT22;1640;48.504;9.224;2023-04-15T08:07:32;9.30;73.50
3256;DHT22;1640;48.504;9.224;2023-04-15T08:10:01;9.40;73.60
3256;DHT22;1640;48.504;9.224;2023-04-15T08:12:29;9.50;74.20
3256;DHT22;1640;48.504;9.224;2023-04-15T08:14:57;9.70;73.90
3256;DHT22;1640;48.504;9.224;2023-04-15T08:17:25;10.00;74.40
3256;DHT22;1640;48.504;9.224;2023-04-15T08:19:55;10.20;74.60
3256;DHT22;1640;48.504;9.224;2023-04-15T08:22:23;10.50;74.20
3256;DHT22;1640;48.504;9.224;2023-04-15T08:24:51;10.70;73.10
3256;DHT22;1640;48.504;9.224;2023-04-15T08:27:18;10.60;72.90
3256;DHT22;1640;48.504;9.224;2023-04-15T08:29:46;10.70;72.20
3256;DHT22;1640;48.504;9.224;2023-04-15T08:32:14;10.80;71.60
3256;DHT22;1640;48.504;9.224;2023-04-15T08:34:42;11.10;72.30
3256;DHT22;1640;48.504;9.224;2023-04-15T08:37:12;11.20;71.60
3256;DHT22;1640;48.504;9.224;2023-04-15T08:39:40;11.10;71.50
3256;DHT22;1640;48.504;9.224;2023-04-15T08:42:11;11.30;71.10
3256;DHT22;1640;48.504;9.224;2023-04-15T08:44:42;11.70;68.60
3256;DHT22;1640;48.504;9.224;2023-04-15T08:47:12;11.80;69.30
3256;DHT22;1640;48.504;9.224;2023-04-15T08:49:42;12.10;67.20
3256;DHT22;1640;48.504;9.224;2023-04-15T08:52:11;12.10;68.50
3256;DHT22;1640;48.504;9.224;2023-04-15T08:54:40;12.40;66.50
3256;DHT22;1640;48.504;9.224;2023-04-15T08:57:08;12.40;65.00
3256;DHT22;1640;48.504;9.224;2023-04-15T08:59:36;12.70;65.30
3256;DHT22;1640;48.504;9.224;2023-04-15T09:02:03;12.70;64.70
3256;DHT22;1640;48.504;9.224;2023-04-15T09:04:32;12.90;63.90
3256;DHT22;1640;48.504;9.224;2023-04-15T09:07:00;13.20;61.60
3256;DHT22;1640;48.504;9.224;2023-04-15T09:09:29;13.30;61.90
3256;DHT22;1640;48.504;9.224;2023-04-15T09:11:57;13.50;60.40
3256;DHT22;1640;48.504;9.224;2023-04-15T09:14:24;13.50;59.90
3256;DHT22;1640;48.504;9.224;2023-04-15T09:16:56;13.40;59.70
3256;DHT22;1640;48.504;9.224;2023-04-15T09:19:24;13.40;60.30
3256;DHT22;1640;48.504;9.224;2023-04-15T09:21:53;13.40;58.00
3256;DHT22;1640;48.504;9.224;2023-04-15T09:24:22;13.50;58.50
3256;DHT22;1640;48.504;9.224;2023-04-15T09:26:53;13.70;58.50
3256;DHT22;1640;48.504;9.224;2023-04-15T09:29:24;13.70;58.20
3256;DHT22;1640;48.504;9.224;2023-04-15T09:31:52;13.90;57.40
3256;DHT22;1640;48.504;9.224;2023-04-15T09:34:19;14.10;57.50
3256;DHT22;1640;48.504;9.224;2023-04-15T09:36:54;14.30;57.40
3256;DHT22;1640;48.504;9.224;2023-04-15T09:39:23;14.30;58.00
3256;DHT22;1640;48.504;9.224;2023-04-15T09:42:07;14.10;58.20
3256;DHT22;1640;48.504;9.224;2023-04-15T09:44:36;14.30;57.50
3256;DHT22;1640;48.504;9.224;2023-04-15T09:47:05;14.20;56.60
3256;DHT22;1640;48.504;9.224;2023-04-15T09:49:33;14.10;56.90
3256;DHT22;1640;48.504;9.224;2023-04-15T09:52:01;14.30;57.00
3256;DHT22;1640;48.504;9.224;2023-04-15T09:54:34;14.50;55.40
3256;DHT22;1640;48.504;9.224;2023-04-15T09:57:07;14.30;54.20
3256;DHT22;1640;48.504;9.224;2023-04-15T09:59:35;14.40;55.60
3256;DHT22;1640;48.504;9.224;2023-04-15T10:02:04;14.40;55.50
3256;DHT22;1640;48.504;9.224;2023-04-15T10:04:35;14.60;55.50
3256;DHT22;1640;48.504;9.224;2023-04-15T10:07:05;14.70;54.00
3256;DHT22;1640;48.504;9.224;2023-04-15T10:09:35;14.60;54.60
3256;DHT22;1640;48.504;9.224;2023-04-15T10:12:03;14.90;52.80
3256;DHT22;1640;48.504;9.224;2023-04-15T10:14:34;15.10;52.00
3256;DHT22;1640;48.504;9.224;2023-04-15T10:17:04;15.40;51.20
3256;DHT22;1640;48.504;9.224;2023-04-15T10:19:33;15.30;50.20
3256;DHT22;1640;48.504;9.224;2023-04-15T10:22:03;15.40;51.80
3256;DHT22;1640;48.504;9.224;2023-04-15T10:24:31;15.70;50.60
3256;DHT22;1640;48.504;9.224;2023-04-15T10:26:59;15.70;48.90
3256;DHT22;1640;48.504;9.224;2023-04-15T10:29:29;15.70;50.60
3256;DHT22;1640;48.504;9.224;2023-04-15T10:32:00;15.90;49.90
3256;DHT22;1640;48.504;9.224;2023-04-15T10:34:29;16.00;49.30
3256;DHT22;1640;48.504;9.224;2023-04-15T10:37:00;16.20;48.20
3256;DHT22;1640;48.504;9.224;2023-04-15T10:39:42;16.20;47.40
3256;DHT22;1640;48.504;9.224;2023-04-15T10:42:12;15.80;47.40
3256;DHT22;1640;48.504;9.224;2023-04-15T10:44:42;15.60;47.50
3256;DHT22;1640;48.504;9.224;2023-04-15T10:47:12;15.00;49.40
3256;DHT22;1640;48.504;9.224;2023-04-15T10:49:47;14.50;50.80
3256;DHT22;1640;48.504;9.224;2023-04-15T10:52:16;14.10;52.10
3256;DHT22;1640;48.504;9.224;2023-04-15T10:54:44;13.90;53.30
3256;DHT22;1640;48.504;9.224;2023-04-15T10:57:21;13.70;54.30
3256;DHT22;1640;48.504;9.224;2023-04-15T11:00:00;13.60;54.30
3256;DHT22;1640;48.504;9.224;2023-04-15T11:02:44;13.50;54.00
3256;DHT22;1640;48.504;9.224;2023-04-15T11:05:13;13.50;53.30
3256;DHT22;1640;48.504;9.224;2023-04-15T11:07:51;13.60;53.30
3256;DHT22;1640;48.504;9.224;2023-04-15T11:10:49;13.80;53.70
3256;DHT22;1640;48.504;9.224;2023-04-15T11:13:23;14.00;52.90
3256;DHT22;1640;48.504;9.224;2023-04-15T11:16:01;14.20;51.30
3256;DHT22;1640;48.504;9.224;2023-04-15T11:18:33;14.40;52.00
3256;DHT22;1640;48.504;9.224;2023-04-15T11:21:03;14.70;50.60
3256;DHT22;1640;48.504;9.224;2023-04-15T11:23:33;15.00;49.70
3256;DHT22;1640;48.504;9.224;2023-04-15T11:26:03;15.10;48.60
3256;DHT22;1640;48.504;9.224;2023-04-15T11:28:34;15.30;48.20
3256;DHT22;1640;48.504;9.224;2023-04-15T11:31:07;15.40;48.60
3256;DHT22;1640;48.504;9.224;2023-04-15T11:33:43;15.30;47.80
3256;DHT22;1640;48.504;9.224;2023-04-15T11:36:12;15.50;47.50
3256;DHT22;1640;48.504;9.224;2023-04-15T11:38:42;15.50;48.50
3256;DHT22;1640;48.504;9.224;2023-04-15T11:41:11;15.50;47.60
3256;DHT22;1640;48.504;9.224;2023-04-15T11:43:38;15.50;47.60
3256;DHT22;1640;48.504;9.224;2023-04-15T11:46:06;15.50;48.00
3256;DHT22;1640;48.504;9.224;2023-04-15T11:48:40;15.20;48.60
3256;DHT22;1640;48.504;9.224;2023-04-15T11:51:08;15.20;49.10
3256;DHT22;1640;48.504;9.224;2023-04-15T11:53:37;15.40;48.90
3256;DHT22;1640;48.504;9.224;2023-04-15T11:56:07;15.80;48.20
3256;DHT22;1640;48.504;9.224;2023-04-15T11:58:36;16.10;47.00
3256;DHT22;1640;48.504;9.224;2023-04-15T12:01:05;16.00;42.30
3256;DHT22;1640;48.504;9.224;2023-04-15T12:03:39;15.80;43.70
3256;DHT22;1640;48.504;9.224;2023-04-15T12:06:12;15.50;43.40
3256;DHT22;1640;48.504;9.224;2023-04-15T12:08:57;15.40;44.40
3256;DHT22;1640;48.504;9.224;2023-04-15T12:11:37;15.30;45.10
3256;DHT22;1640;48.504;9.224;2023-04-15T12:14:19;15.20;44.10
3256;DHT22;1640;48.504;9.224;2023-04-15T12:16:48;15.00;43.80
3256;DHT22;1640;48.504;9.224;2023-04-15T12:19:21;14.70;44.50
3256;DHT22;1640;48.504;9.224;2023-04-15T12:21:49;14.60;45.50
3256;DHT22;1640;48.504;9.224;2023-04-15T12:24:20;14.40;45.50
3256;DHT22;1640;48.504;9.224;2023-04-15T12:26:50;14.60;46.70
3256;DHT22;1640;48.504;9.224;2023-04-15T12:29:18;14.80;47.40
3256;DHT22;1640;48.504;9.224;2023-04-15T12:31:48;14.90;46.60
3256;DHT22;1640;48.504;9.224;2023-04-15T12:34:25;14.90;47.00
3256;DHT22;1640;48.504;9.224;2023-04-15T12:36:53;14.90;47.10
3256;DHT22;1640;48.504;9.224;2023-04-15T12:39:22;15.00;46.10
3256;DHT22;1640;48.504;9.224;2023-04-15T12:41:50;15.10;45.20
3256;DHT22;1640;48.504;9.224;2023-04-15T12:44:18;15.20;46.40
3256;DHT22;1640;48.504;9.224;2023-04-15T12:46:47;15.50;44.70
3256;DHT22;1640;48.504;9.224;2023-04-15T12:49:17;15.50;44.70
3256;DHT22;1640;48.504;9.224;2023-04-15T12:51:46;15.60;46.00
3256;DHT22;1640;48.504;9.224;2023-04-15T12:54:15;15.40;47.40
3256;DHT22;1640;48.504;9.224;2023-04-15T12:56:44;15.40;47.10
3256;DHT22;1640;48.504;9.224;2023-04-15T12:59:12;15.60;46.60
3256;DHT22;1640;48.504;9.224;2023-04-15T13:01:40;15.60;46.00
3256;DHT22;1640;48.504;9.224;2023-04-15T13:04:08;15.80;45.20
3256;DHT22;1640;48.504;9.224;2023-04-15T13:06:37;15.60;43.00
3256;DHT22;1640;48.504;9.224;2023-04-15T13:09:05;15.60;45.10
3256;DHT22;1640;48.504;9.224;2023-04-15T13:11:33;15.50;45.30
3256;DHT22;1640;48.504;9.224;2023-04-15T13:14:03;15.50;46.40
3256;DHT22;1640;48.504;9.224;2023-04-15T13:16:31;15.30;47.20
3256;DHT22;1640;48.504;9.224;2023-04-15T13:19:00;15.30;48.00
3256;DHT22;1640;48.504;9.224;2023-04-15T13:21:29;15.40;49.80
3256;DHT22;1640;48.504;9.224;2023-04-15T13:24:01;14.80;55.50
3256;DHT22;1640;48.504;9.224;2023-04-15T13:26:32;14.00;60.00
3256;DHT22;1640;48.504;9.224;2023-04-15T13:29:00;13.40;64.00
3256;DHT22;1640;48.504;9.224;2023-04-15T13:31:28;12.90;66.50
3256;DHT22;1640;48.504;9.224;2023-04-15T13:33:56;12.70;69.50
3256;DHT22;1640;48.504;9.224;2023-04-15T13:36:24;12.50;69.50
3256;DHT22;1640;48.504;9.224;2023-04-15T13:38:52;12.40;71.50
3256;DHT22;1640;48.504;9.224;2023-04-15T13:41:22;12.60;71.10
3256;DHT22;1640;48.504;9.224;2023-04-15T13:43:49;12.80;70.90
3256;DHT22;1640;48.504;9.224;2023-04-15T13:46:17;13.00;70.80
3256;DHT22;1640;48.504;9.224;2023-04-15T13:48:45;13.10;70.00
3256;DHT22;1640;48.504;9.224;2023-04-15T13:51:13;13.10;69.90
3256;DHT22;1640;48.504;9.224;2023-04-15T13:53:41;13.20;71.30
3256;DHT22;1640;48.504;9.224;2023-04-15T13:56:09;13.40;71.10
3256;DHT22;1640;48.504;9.224;2023-04-15T13:58:39;13.60;70.20
3256;DHT22;1640;48.504;9.224;2023-04-15T14:01:07;13.90;68.60
3256;DHT22;1640;48.504;9.224;2023-04-15T14:03:35;14.20;66.50
3256;DHT22;1640;48.504;9.224;2023-04-15T14:06:03;14.30;65.20
3256;DHT22;1640;48.504;9.224;2023-04-15T14:08:31;14.30;65.00
3256;DHT22;1640;48.504;9.224;2023-04-15T14:10:59;14.20;64.50
3256;DHT22;1640;48.504;9.224;2023-04-15T14:13:27;14.20;64.30
3256;DHT22;1640;48.504;9.224;2023-04-15T14:15:56;14.10;65.00
3256;DHT22;1640;48.504;9.224;2023-04-15T14:18:24;14.10;64.60
3256;DHT22;1640;48.504;9.224;2023-04-15T14:20:52;13.70;58.50
3256;DHT22;1640;48.504;9.224;2023-04-15T14:23:20;13.30;59.90
3256;DHT22;1640;48.504;9.224;2023-04-15T14:25:48;13.00;60.00
3256;DHT22;1640;48.504;9.224;2023-04-15T14:28:16;12.50;60.60
3256;DHT22;1640;48.504;9.224;2023-04-15T14:30:44;12.00;62.60
3256;DHT22;1640;48.504;9.224;2023-04-15T14:33:14;11.70;64.30
3256;DHT22;1640;48.504;9.224;2023-04-15T14:35:42;11.60;66.90
3256;DHT22;1640;48.504;9.224;2023-04-15T14:38:10;11.60;66.20
3256;DHT22;1640;48.504;9.224;2023-04-15T14:40:39;11.80;64.60
3256;DHT22;1640;48.504;9.224;2023-04-15T14:43:07;12.00;66.00
3256;DHT22;1640;48.504;9.224;2023-04-15T14:45:36;12.10;63.30
3256;DHT22;1640;48.504;9.224;2023-04-15T14:48:04;12.30;63.90
3256;DHT22;1640;48.504;9.224;2023-04-15T14:50:36;12.40;61.30
3256;DHT22;1640;48.504;9.224;2023-04-15T14:53:04;12.40;60.30
3256;DHT22;1640;48.504;9.224;2023-04-15T14:55:32;12.30;61.30
3256;DHT22;1640;48.504;9.224;2023-04-15T14:58:00;12.30;61.90
3256;DHT22;1640;48.504;9.224;2023-04-15T15:00:29;12.20;60.90
3256;DHT22;1640;48.504;9.224;2023-04-15T15:02:57;12.20;61.70
3256;DHT22;1640;48.504;9.224;2023-04-15T15:05:25;12.20;60.70
3256;DHT22;1640;48.504;9.224;2023-04-15T15:07:55;12.20;57.80
3256;DHT22;1640;48.504;9.224;2023-04-15T15:10:23;12.00;58.60
3256;DHT22;1640;48.504;9.224;2023-04-15T15:12:50;12.10;57.70
3256;DHT22;1640;48.504;9.224;2023-04-15T15:15:18;12.10;55.60
3256;DHT22;1640;48.504;9.224;2023-04-15T15:17:46;12.10;54.60
3256;DHT22;1640;48.504;9.224;2023-04-15T15:20:14;12.10;53.70
3256;DHT22;1640;48.504;9.224;2023-04-15T15:22:42;12.20;53.70
3256;DHT22;1640;48.504;9.224;2023-04-15T15:25:11;12.10;49.00
3256;DHT22;1640;48.504;9.224;2023-04-15T15:27:39;12.10;45.70
3256;DHT22;1640;48.504;9.224;2023-04-15T15:30:07;12.00;45.70
3256;DHT22;1640;48.504;9.224;2023-04-15T15:32:35;12.00;45.90
3256;DHT22;1640;48.504;9.224;2023-04-15T15:35:04;12.00;45.90
3256;DHT22;1640;48.504;9.224;2023-04-15T15:37:33;11.90;47.10
3256;DHT22;1640;48.504;9.224;2023-04-15T15:40:03;11.80;48.30
3256;DHT22;1640;48.504;9.224;2023-04-15T15:42:32;11.70;49.70
3256;DHT22;1640;48.504;9.224;2023-04-15T15:45:06;11.60;51.30
3256;DHT22;1640;48.504;9.224;2023-04-15T15:47:34;11.40;53.10
3256;DHT22;1640;48.504;9.224;2023-04-15T15:50:02;11.40;54.00
3256;DHT22;1640;48.504;9.224;2023-04-15T15:52:30;11.30;54.70
3256;DHT22;1640;48.504;9.224;2023-04-15T15:54:58;11.30;56.50
3256;DHT22;1640;48.504;9.224;2023-04-15T15:57:27;11.20;58.10
3256;DHT22;1640;48.504;9.224;2023-04-15T15:59:56;11.10;59.50
3256;DHT22;1640;48.504;9.224;2023-04-15T16:02:24;11.10;60.10
3256;DHT22;1640;48.504;9.224;2023-04-15T16:04:52;11.10;60.70
3256;DHT22;1640;48.504;9.224;2023-04-15T16:07:19;11.20;61.60
3256;DHT22;1640;48.504;9.224;2023-04-15T16:09:47;11.20;61.70
3256;DHT22;1640;48.504;9.224;2023-04-15T16:12:15;11.20;61.70
3256;DHT22;1640;48.504;9.224;2023-04-15T16:14:43;11.10;63.60
3256;DHT22;1640;48.504;9.224;2023-04-15T16:17:13;11.10;65.90
3256;DHT22;1640;48.504;9.224;2023-04-15T16:19:41;11.00;65.70